• Join FlightAware (Why Join?)
  • Login
  • US Flag 
12:56PM EDT


 

Airport Tracker/Info


-or-


 

Live Flight TrackerFlight Track Log ✈ AMX3 ✈ 12-May-2013 ✈ MMMX / MEX - LFPG / CDG

Flight Track Log - Related Links

Times and Time Zones

All times are in EDT time to prevent confusion due to time zone crossing. See the AMX3 flight status page for this flight to view local times or setup timezone preferences in your user account.

Time Position Orientation Groundspeed Altitude Reporting Facility
EDT Latitude Longitude Course Direction KTS MPH feet Rate Location/Type
01:00AM 25.0336 -95.8850 29° Northeast 511 588 32,900  Level Houston Center
01:01AM 25.1583 -95.8075 29° Northeast 513 590 32,900  Level Houston Center
01:02AM 25.2892 -95.7242 30° Northeast 518 596 33,000  Climbing Houston Center
01:03AM 25.4089 -95.6519 29° Northeast 517 595 33,000 -60 Level Houston Center
01:04AM 25.5331 -95.5767 29° Northeast 513 590 32,900 -60 Descending Houston Center
01:05AM 25.6714 -95.4742 34° Northeast 529 609 32,900  Level Houston Center
01:06AM 25.7675 -95.3661 45° Northeast 533 613 33,000  Climbing Houston Center
01:07AM 25.8728 -95.2311 49° Northeast 534 615 33,000  Level Houston Center
01:08AM 25.9703 -95.1044 49° Northeast 537 618 33,000  Level Houston Center
01:09AM 26.0567 -94.9919 49° Northeast 534 615 33,000  Level Houston Center
01:10AM 26.1503 -94.8689 50° Northeast 530 610 33,000 -60 Level Houston Center
01:11AM 26.2442 -94.7461 50° Northeast 528 608 32,900  Descending Houston Center
01:12AM 26.3619 -94.6061 47° Northeast 537 618 33,000  Climbing Houston Center
01:13AM 26.4475 -94.4958 49° Northeast 534 615 33,000  Level Houston Center
01:14AM 26.5447 -94.3669 50° Northeast 540 621 33,000  Level Houston Center
01:15AM 26.6428 -94.2406 49° Northeast 539 620 33,000  Level Houston Center
01:16AM 26.7403 -94.1133 49° Northeast 540 621 33,000  Level Houston Center
01:17AM 26.8383 -93.9872 49° Northeast 540 621 33,000  Level Houston Center
01:18AM 26.9344 -93.8597 50° Northeast 536 617 33,000  Level Houston Center
01:19AM 27.0286 -93.7353 50° Northeast 528 608 33,000  Level Houston Center
01:20AM 27.1225 -93.6111 50° Northeast 524 603 33,000  Level Houston Center
01:21AM 27.2164 -93.4864 50° Northeast 524 603 33,000  Level Houston Center
01:22AM 27.3106 -93.3611 50° Northeast 524 603 33,000  Level Houston Center
01:23AM 27.4239 -93.2108 50° Northeast 526 605 33,000  Level Houston Center
01:24AM 27.5119 -93.0928 50° Northeast 529 609 33,000  Level Houston Center
01:25AM 27.6067 -92.9650 50° Northeast 530 610 33,000  Level Houston Center
01:26AM 27.7028 -92.8369 50° Northeast 533 613 33,000 -60 Level Houston Center
01:27AM 27.7986 -92.7069 50° Northeast 537 618 32,900  Descending Houston Center
01:28AM 27.8961 -92.5767 50° Northeast 541 623 33,000  Climbing Houston Center
01:29AM 27.9908 -92.4475 50° Northeast 539 620 33,000  Level Houston Center
01:30AM 28.0844 -92.3189 50° Northeast 534 615 33,000  Level Houston Center
01:31AM 28.1800 -92.1881 50° Northeast 538 619 33,000  Level Houston Center
01:32AM 28.2736 -92.0594 50° Northeast 533 613 33,000  Level Houston Center
01:33AM 28.3667 -91.9306 51° Northeast 530 610 33,000  Level Houston Center
01:34AM 28.4603 -91.8014 50° Northeast 531 611 33,000  Level Houston Center
01:35AM 28.5625 -91.6600 51° Northeast 527 606 33,000  Level Houston Center
01:36AM 28.6561 -91.5297 51° Northeast 531 611 33,000 -60 Level Houston Center
01:37AM 28.7478 -91.4006 51° Northeast 526 605 32,900  Descending Houston Center
01:38AM 28.8408 -91.2703 51° Northeast 524 603 33,000  Climbing Houston Center
01:39AM 28.9322 -91.1450 50° Northeast 521 600 32,900 -60 Descending Houston Center
01:40AM 29.0239 -91.0172 51° Northeast 522 601 32,900  Level Houston Center
01:41AM 29.1150 -90.8903 51° Northeast 520 598 33,000  Climbing Houston Center
01:42AM 29.2069 -90.7625 50° Northeast 519 597 33,000  Level Houston Center
01:43AM 29.2978 -90.6322 51° Northeast 522 601 33,000  Level Houston Center
01:44AM 29.3886 -90.5011 51° Northeast 526 605 33,000  Level Houston Center
01:45AM 29.4814 -90.3697 51° Northeast 530 610 33,000  Level Houston Center
01:46AM 29.5722 -90.2358 52° Northeast 532 612 33,000  Level Houston Center
01:47AM 29.6669 -90.1019 51° Northeast 539 620 33,000  Level Houston Center
01:48AM 29.7592 -89.9664 52° Northeast 540 621 33,000  Level Houston Center
01:49AM 29.8528 -89.8297 52° Northeast 545 627 33,000  Level Houston Center
01:50AM 29.9461 -89.6928 52° Northeast 547 629 33,000  Level Houston Center
01:51AM 30.0400 -89.5550 52° Northeast 553 636 33,000  Level Houston Center
01:52AM 30.1339 -89.4183 52° Northeast 551 634 33,000 -60 Level Houston Center
01:53AM 30.2269 -89.2806 52° Northeast 550 633 32,900  Descending Houston Center
01:54AM 30.3197 -89.1431 52° Northeast 549 632 33,000  Climbing Houston Center
01:55AM 30.4125 -89.0061 52° Northeast 545 627 32,900  Descending Houston Center
01:56AM 30.5147 -88.8536 52° Northeast 541 623 33,000  Climbing Houston Center
01:57AM 30.6064 -88.7153 52° Northeast 543 625 33,000  Level Houston Center
01:58AM 30.6975 -88.5778 52° Northeast 540 621 33,000  Level Houston Center
01:59AM 30.7792 -88.4564 52° Northeast 541 623 33,000  Level Houston Center
02:00AM 30.8719 -88.3172 52° Northeast 546 628 33,000  Level Houston Center
02:01AM 30.9639 -88.1767 53° Northeast 547 629 33,000  Level Houston Center
02:02AM 31.0600 -88.0356 51° Northeast 553 636 33,000  Level Houston Center
02:03AM 31.1539 -87.8958 52° Northeast 548 631 33,000  Level Houston Center
02:04AM 31.2500 -87.7497 52° Northeast 548 631 33,000  Level Houston Center
02:05AM 31.3433 -87.6069 53° Northeast 553 636 33,000  Level Houston Center
02:06AM 31.4353 -87.4631 53° Northeast 553 636 33,000  Level Houston Center
02:06AM 31.4950 -87.3778 51° Northeast 473 544 33,000  Level Atlanta Center
02:07AM 31.5886 -87.2300 53° Northeast 513 590 33,000  Level Atlanta Center
02:08AM 31.6842 -87.0844 52° Northeast 546 628 33,000  Level Atlanta Center
02:09AM 31.7625 -86.9528 55° Northeast 546 628 33,000  Level Atlanta Center
02:10AM 31.8556 -86.8067 53° Northeast 551 634 33,000  Level Atlanta Center
02:11AM 31.9464 -86.6628 53° Northeast 551 634 33,000  Level Atlanta Center
02:12AM 32.0539 -86.5064 51° Northeast 557 641 33,000  Level Atlanta Center
02:13AM 32.1294 -86.3761 56° Northeast 552 635 33,000  Level Atlanta Center
02:14AM 32.2389 -86.2169 51° Northeast 546 628 33,000  Level Atlanta Center
02:15AM 32.3142 -86.0811 57° Northeast 546 628 33,000  Level Atlanta Center
02:16AM 32.4125 -85.9258 53° Northeast 546 628 33,000  Level Atlanta Center
02:17AM 32.5003 -85.7800 54° Northeast 546 628 33,000  Level Atlanta Center
02:18AM 32.5983 -85.6292 52° Northeast 551 634 33,000  Level Atlanta Center
02:19AM 32.6858 -85.4778 55° Northeast 551 634 33,000  Level Atlanta Center
02:20AM 32.7750 -85.3333 54° Northeast 551 634 33,000  Level Atlanta Center
02:21AM 32.8664 -85.1814 54° Northeast 551 634 33,000  Level Atlanta Center
02:22AM 32.9489 -85.0536 52° Northeast 546 628 33,000  Level Atlanta Center
02:23AM 33.0378 -84.9061 54° Northeast 546 628 33,000  Level Atlanta Center
02:24AM 33.1264 -84.7556 55° Northeast 551 634 33,000  Level Atlanta Center
02:25AM 33.2169 -84.6050 54° Northeast 551 634 33,000  Level Atlanta Center
02:26AM 33.3031 -84.4564 55° Northeast 551 634 33,000  Level Atlanta Center
02:27AM 33.3953 -84.3050 54° Northeast 551 634 33,000  Level Atlanta Center
02:28AM 33.4853 -84.1558 54° Northeast 556 640 33,000  Level Atlanta Center
02:29AM 33.5750 -84.0039 55° Northeast 556 640 33,000  Level Atlanta Center
02:30AM 33.6689 -83.8392 56° Northeast 556 640 33,000  Level Atlanta Center
02:31AM 33.7603 -83.6914 53° Northeast 551 634 33,000  Level Atlanta Center
02:32AM 33.8494 -83.5336 56° Northeast 556 640 33,000  Level Atlanta Center
02:33AM 33.9386 -83.3853 54° Northeast 551 634 33,000  Level Atlanta Center
02:34AM 34.0275 -83.2342 55° Northeast 551 634 33,000  Level Atlanta Center
02:35AM 34.1119 -83.0828 56° Northeast 551 634 33,000  Level Atlanta Center
02:36AM 34.2003 -82.9286 55° Northeast 559 643 33,000  Level Atlanta Center
02:37AM 34.2886 -82.7742 55° Northeast 559 643 33,000  Level Atlanta Center
02:38AM 34.3786 -82.6167 55° Northeast 564 649 33,000  Level Atlanta Center
02:39AM 34.4644 -82.4667 55° Northeast 553 636 33,000  Level Atlanta Center
02:40AM 34.5522 -82.3086 56° Northeast 553 636 33,000  Level Atlanta Center
02:41AM 34.6417 -82.1553 55° Northeast 553 636 33,000  Level Atlanta Center
02:42AM 34.7292 -82.0017 55° Northeast 559 643 33,000  Level Atlanta Center
02:43AM 34.8161 -81.8403 57° Northeast 565 650 33,000  Level Atlanta Center
02:44AM 34.8947 -81.7039 55° Northeast 565 650 33,000  Level Atlanta Center
02:45AM 34.9836 -81.5442 56° Northeast 565 650 33,000  Level Atlanta Center
02:46AM 35.0719 -81.3817 56° Northeast 560 644 33,000  Level Atlanta Center
02:47AM 35.1561 -81.2267 56° Northeast 560 644 33,000  Level Atlanta Center
02:48AM 35.2442 -81.0683 56° Northeast 560 644 33,000  Level Atlanta Center
02:50AM 35.4122 -80.7553 57° Northeast 552 635 33,000  Level Washington Center
02:51AM 35.4983 -80.5978 56° Northeast 552 635 33,000  Level Washington Center
02:52AM 35.5708 -80.4592 57° Northeast 552 635 33,000  Level Washington Center
02:53AM 35.6567 -80.2983 57° Northeast 552 635 33,000  Level Washington Center
02:54AM 35.7400 -80.1394 57° Northeast 552 635 33,000  Level Washington Center
02:55AM 35.8250 -79.9881 55° Northeast 547 629 33,000  Level Washington Center
02:56AM 35.9100 -79.8286 57° Northeast 547 629 33,000  Level Washington Center
02:57AM 35.9928 -79.6661 58° Northeast 552 635 33,000  Level Washington Center
02:58AM 36.0842 -79.4883 58° Northeast 552 635 33,000  Level Washington Center
02:59AM 36.1619 -79.3456 56° Northeast 552 635 33,000 480 Level Washington Center
03:00AM 36.2442 -79.1847 58° Northeast 552 635 34,000 900 Climbing Washington Center
03:01AM 36.3303 -79.0211 57° Northeast 547 629 34,800 480 Climbing Washington Center
03:02AM 36.4164 -78.8519 58° Northeast 559 643 35,000 60 Climbing Washington Center
03:03AM 36.5000 -78.6850 58° Northeast 564 649 35,000  Level Washington Center
03:04AM 36.5878 -78.5175 57° Northeast 574 661 35,000  Level Washington Center
03:05AM 36.6708 -78.3497 58° Northeast 574 661 35,000  Level Washington Center
03:06AM 36.7606 -78.1664 59° Northeast 574 661 35,000  Level Washington Center
03:07AM 36.8456 -77.9928 59° Northeast 574 661 35,000  Level Washington Center
03:08AM 36.9303 -77.8264 57° Northeast 574 661 35,000  Level Washington Center
03:09AM 37.0125 -77.6572 59° Northeast 569 655 35,000  Level Washington Center
03:10AM 37.0967 -77.4850 58° Northeast 574 661 35,000  Level Washington Center
03:11AM 37.1786 -77.3150 59° Northeast 574 661 35,000  Level Washington Center
03:12AM 37.2642 -77.1447 58° Northeast 574 661 35,000  Level Washington Center
03:13AM 37.3436 -76.9739 60° Northeast 574 661 35,000  Level Washington Center
03:14AM 37.4181 -76.8208 58° Northeast 574 661 35,000  Level Washington Center
03:15AM 37.5033 -76.6467 58° Northeast 574 661 35,000  Level Washington Center
03:16AM 37.5839 -76.4775 59° Northeast 569 655 35,000  Level Washington Center
03:17AM 37.6642 -76.3028 60° Northeast 569 655 35,000  Level Washington Center
03:18AM 37.7486 -76.1356 57° Northeast 576 663 35,000  Level Washington Center
03:19AM 37.8264 -75.9597 61° Northeast 569 655 35,000  Level Washington Center
03:20AM 37.9081 -75.7864 59° Northeast 569 655 35,000  Level Washington Center
03:21AM 37.9875 -75.6181 59° Northeast 569 655 35,000 -60 Level Washington Center
03:22AM 38.0772 -75.4572 55° Northeast 569 655 34,900  Descending Washington Center
03:23AM 38.1917 -75.3275 42° Northeast 545 627 35,000  Climbing Washington Center
03:24AM 38.3081 -75.2053 39° Northeast 539 620 34,900 -60 Descending Washington Center
03:25AM 38.4244 -75.0856 39° Northeast 539 620 34,900  Level Washington Center
03:26AM 38.5383 -74.9600 41° Northeast 539 620 35,000  Climbing Washington Center
03:27AM 38.6564 -74.8367 39° Northeast 539 620 35,000  Level Washington Center
03:28AM 38.7703 -74.7131 40° Northeast 539 620 35,000  Level Washington Center
03:29AM 38.8903 -74.5889 39° Northeast 546 628 35,000  Level Washington Center
03:30AM 39.0036 -74.4617 41° Northeast 546 628 35,000  Level Washington Center
03:31AM 39.1214 -74.3369 39° Northeast 546 628 35,000  Level Washington Center
03:32AM 39.2344 -74.2117 41° Northeast 546 628 35,000  Level Washington Center
03:33AM 39.3642 -74.0694 40° Northeast 546 628 35,000 -60 Level Washington Center
03:34AM 39.4769 -73.9433 41° Northeast 546 628 34,900 -60 Descending Washington Center
03:35AM 39.5919 -73.8222 39° Northeast 541 623 34,900  Level Washington Center
03:36AM 39.6961 -73.6847 45° Northeast 541 623 35,000  Climbing Washington Center
03:37AM 39.7831 -73.5258 55° Northeast 531 611 35,000  Level Washington Center
03:38AM 39.8642 -73.3911 52° Northeast 537 618 35,000  Level Washington Center
03:39AM 39.9550 -73.2394 52° Northeast 531 611 35,000 -120 Level Washington Center
03:41AM 40.0569 -73.0611 41° Northeast  Level Estimated
03:48AM 40.7302 -72.2230 80° East  Level FlightAware Approximate
03:49AM 40.7546 -72.0409 80° East  Level FlightAware Approximate
03:50AM 40.7787 -71.8587 80° East  Level FlightAware Approximate
03:51AM 40.8025 -71.6764 80° East  Level FlightAware Approximate
03:52AM 40.8285 -71.4945 78° East  Level FlightAware Approximate
03:53AM 40.8578 -71.3134 78° East  Level FlightAware Approximate
03:54AM 40.8869 -71.1322 78° East  Level FlightAware Approximate
03:55AM 40.9132 -70.9502 80° East  Level FlightAware Approximate
03:56AM 40.9371 -70.7675 80° East  Level FlightAware Approximate
03:57AM 40.9607 -70.5847 80° East  Level FlightAware Approximate
03:58AM 40.9841 -70.4017 80° East  Level FlightAware Approximate
03:58AM 41.5711 -70.2811 44° Northeast 552 635 33,000  Level Boston Center
03:59AM 41.0071 -70.2186 80° East  Level FlightAware Approximate
03:59AM 41.6444 -70.0953 62° Northeast 552 635 35,000  Level Boston Center
04:00AM 41.0298 -70.0354 81° East  Level FlightAware Approximate
04:00AM 41.7347 -69.9250 55° Northeast 557 641 35,000  Level Boston Center
04:01AM 41.0523 -69.8521 81° East  Level FlightAware Approximate
04:01AM 41.8183 -69.7603 56° Northeast 542 624 35,000  Level Boston Center
04:02AM 41.1024 -69.6880 44° Northeast  Level FlightAware Approximate
04:02AM 41.9019 -69.5947 56° Northeast 537 618 35,000  Level Boston Center
04:03AM 41.9789 -69.4267 58° Northeast 532 612 35,000  Level Boston Center
04:04AM 42.0739 -69.2458 55° Northeast 538 619 35,000  Level Boston Center
04:05AM 42.1569 -69.0847 55° Northeast 533 613 35,000 -60 Level Boston Center
04:06AM 42.2372 -68.9119 58° Northeast 533 613 34,900  Descending Boston Center
04:07AM 42.3194 -68.7444 56° Northeast 533 613 35,000  Climbing Boston Center
04:08AM 42.3994 -68.5794 57° Northeast 533 613 35,000  Level Boston Center
04:09AM 42.4811 -68.4111 57° Northeast 533 613 35,000  Level Boston Center
04:10AM 42.5608 -68.2536 55° Northeast 528 608 35,000  Level Boston Center
04:11AM 42.6419 -68.0842 57° Northeast 521 600 35,000  Level Boston Center
04:12AM 42.7211 -67.9175 57° Northeast 526 605 35,000  Level Boston Center
04:13AM 42.7997 -67.7475 58° Northeast 526 605 35,000  Level Boston Center
04:14AM 42.8800 -67.5769 57° Northeast 526 605 35,000  Level Boston Center
04:15AM 42.9583 -67.4089 57° Northeast 526 605 35,000  Level Boston Center
04:16AM 43.0364 -67.2433 57° Northeast 526 605 35,000  Level Boston Center
04:17AM 43.1142 -67.0772 57° Northeast 526 605 35,000 -60 Level Boston Center
04:18AM 43.1981 -66.9131 55° Northeast 526 605 34,900 -60 Descending Boston Center
04:19AM 43.2864 -66.7567 52° Northeast 526 605 34,900  Level Boston Center
04:20AM 43.3744 -66.5997 52° Northeast 519 597 35,000  Climbing Boston Center
04:21AM 43.4667 -66.4000 57° Northeast 520 598 35,000  Level Moncton Center
04:22AM 43.5500 -66.2667 49° Northeast 520 598 35,000  Level Moncton Center
04:23AM 43.6333 -66.0833 58° Northeast 520 598 35,000  Level Moncton Center
04:24AM 43.7167 -65.9500 49° Northeast 520 598 35,000  Level Moncton Center
04:25AM 43.8167 -65.7667 53° Northeast 520 598 35,000  Level Moncton Center
04:26AM 43.9000 -65.6333 49° Northeast 520 598 35,000  Level Moncton Center
04:27AM 44.0000 -65.4500 53° Northeast 520 598 35,000  Level Moncton Center
04:28AM 44.0833 -65.2833 55° Northeast 530 610 35,000  Level Moncton Center
04:29AM 44.1667 -65.1167 55° Northeast 530 610 35,000  Level Moncton Center
04:30AM 44.2500 -64.9500 55° Northeast 540 621 35,000  Level Moncton Center
04:31AM 44.3500 -64.7667 53° Northeast 540 621 35,000  Level Moncton Center
04:32AM 44.4333 -64.6333 49° Northeast 530 610 35,000  Level Moncton Center
04:33AM 44.5167 -64.4500 57° Northeast 530 610 35,000  Level Moncton Center
04:34AM 44.6000 -64.2833 55° Northeast 530 610 35,000  Level Moncton Center
04:35AM 44.6833 -64.1167 55° Northeast 520 598 35,000  Level Moncton Center
04:36AM 44.7833 -63.9500 50° Northeast 520 598 35,000  Level Moncton Center
04:37AM 44.8667 -63.7833 55° Northeast 520 598 35,000  Level Moncton Center
04:38AM 44.9333 -63.6333 58° Northeast 510 587 35,000  Level Moncton Center
04:39AM 45.0333 -63.4500 52° Northeast 510 587 35,000  Level Moncton Center
04:40AM 45.1167 -63.3000 52° Northeast 510 587 35,000  Level Moncton Center
04:41AM 45.2000 -63.1333 55° Northeast 510 587 35,000  Level Moncton Center
04:42AM 45.2833 -62.9667 55° Northeast 510 587 35,000  Level Moncton Center
04:43AM 45.3667 -62.8000 55° Northeast 520 598 35,000  Level Moncton Center
04:44AM 45.4500 -62.6333 54° Northeast 520 598 35,000  Level Moncton Center
04:45AM 45.5167 -62.4667 60° Northeast 520 598 35,000  Level Moncton Center
04:46AM 45.6000 -62.3000 54° Northeast 520 598 35,000  Level Moncton Center
04:47AM 45.6833 -62.1000 59° Northeast 530 610 35,000  Level Moncton Center
04:48AM 45.7833 -61.9500 46° Northeast 530 610 35,000  Level Moncton Center
04:49AM 45.8667 -61.7833 54° Northeast 530 610 35,000  Level Moncton Center
04:50AM 45.9333 -61.5833 64° Northeast 530 610 35,000  Level Moncton Center
04:51AM 46.0167 -61.4167 54° Northeast 530 610 35,000  Level Moncton Center
04:52AM 46.1167 -61.2333 52° Northeast 530 610 35,000  Level Moncton Center
04:53AM 46.2000 -61.0667 54° Northeast 530 610 35,000  Level Moncton Center
04:54AM 46.2667 -60.8667 64° Northeast 530 610 35,000  Level Moncton Center
04:55AM 46.3500 -60.7167 51° Northeast 530 610 35,000  Level Moncton Center
04:56AM 46.4333 -60.5333 57° Northeast 530 610 35,000  Level Moncton Center
04:57AM 46.5167 -60.3333 59° Northeast 520 598 35,000  Level Moncton Center
04:58AM 46.6000 -60.1833 51° Northeast 520 598 35,000  Level Moncton Center
04:59AM 46.6833 -60.0000 56° Northeast 520 598 35,000  Level Moncton Center
05:00AM 46.7500 -59.8000 64° Northeast 520 598 35,000  Level Gander Center
05:01AM 46.8333 -59.6167 56° Northeast 520 598 35,000  Level Gander Center
05:02AM 46.9167 -59.4500 54° Northeast 520 598 35,000  Level Gander Center
05:03AM 47.0000 -59.2667 56° Northeast 510 587 35,000  Level Gander Center
05:04AM 47.0667 -59.1000 60° Northeast 510 587 35,000  Level Gander Center
05:05AM 47.1333 -58.9333 59° Northeast 510 587 35,000  Level Gander Center
05:06AM 47.2167 -58.7167 60° Northeast 520 598 35,000  Level Gander Center
05:07AM 47.3000 -58.5500 54° Northeast 520 598 35,000  Level Gander Center
05:08AM 47.3667 -58.3667 62° Northeast 520 598 35,000  Level Gander Center
05:09AM 47.4333 -58.2000 59° Northeast 520 598 35,000  Level Gander Center
05:10AM 47.5167 -58.0167 56° Northeast 520 598 35,000  Level Gander Center
05:11AM 47.6000 -57.8167 58° Northeast 520 598 35,000  Level Gander Center
05:12AM 47.6667 -57.6667 57° Northeast 520 598 35,000  Level Gander Center
05:13AM 47.7500 -57.4500 60° Northeast 520 598 35,000  Level Gander Center
05:14AM 47.8167 -57.2833 59° Northeast 510 587 35,000  Level Moncton Center
05:14AM 47.8167 -57.2833 59° Northeast 520 598 35,000  Level Gander Center
05:15AM 47.8667 -57.1000 68° East 510 587 35,000  Level Moncton Center
05:16AM 47.9333 -56.9167 61° Northeast 510 587 35,000  Level Moncton Center
05:17AM 48.0167 -56.7167 58° Northeast 510 587 35,000  Level Gander Center
05:18AM 48.0833 -56.5000 65° Northeast 510 587 35,000  Level Gander Center
05:19AM 48.1333 -56.3167 68° East 510 587 35,000  Level Gander Center
05:20AM 48.2000 -56.1333 61° Northeast 510 587 35,000  Level Gander Center
05:21AM 48.2500 -55.9333 69° East 510 587 35,000  Level Gander Center
05:22AM 48.3333 -55.7500 56° Northeast 510 587 35,000  Level Gander Center
05:23AM 48.3833 -55.5667 68° East 510 587 35,000  Level Gander Center
05:24AM 48.4500 -55.3833 61° Northeast 500 575 35,000  Level Gander Center
05:25AM 48.5000 -55.1667 71° East 500 575 35,000  Level Gander Center
05:26AM 48.5500 -54.9833 68° East 500 575 35,000  Level Gander Center
05:27AM 48.6333 -54.8000 55° Northeast 500 575 35,000  Level Gander Center
05:28AM 48.6833 -54.6167 67° East 500 575 35,000  Level Gander Center
05:29AM 48.7333 -54.4000 71° East 500 575 35,000  Level Gander Center
05:30AM 48.8000 -54.2167 61° Northeast 510 587 35,000  Level Gander Center
05:31AM 48.8500 -54.0333 67° East 500 575 35,000  Level Gander Center
05:32AM 48.9000 -53.8500 67° East 510 587 35,000  Level Gander Center
05:33AM 48.9833 -53.6333 60° Northeast 510 587 35,000  Level Gander Center
05:34AM 49.0333 -53.4500 67° East 510 587 35,000  Level Gander Center
05:35AM 49.0667 -53.3167 69° East 510 587 35,000  Level Gander Center
05:36AM 49.1167 -53.1167 69° East 510 587 35,000  Level Gander Center
05:36AM 49.1500 -53.0500 53° Northeast 510 587 35,000  Level Gander Center
05:37AM 49.2000 -52.9000 63° Northeast 500 575 35,000  Level Gander Center
05:38AM 49.2500 -52.7167 67° East 510 587 35,000  Level Gander Center
05:39AM 49.3000 -52.5000 70° East 510 587 35,000  Level Gander Center
05:39AM 49.3167 -52.4667 53° Northeast 500 575 35,000  Level Gander Center
05:40AM 49.3667 -52.2667 69° East 510 587 35,000  Level Gander Center
05:41AM 49.4000 -52.1167 71° East 510 587 35,000  Level Gander Center
05:42AM 49.4667 -51.9333 61° Northeast 500 575 35,000  Level Gander Center
05:42AM 49.4833 -51.8500 73° East 510 587 35,000  Level Gander Center
05:43AM 49.5333 -51.6500 69° East 510 587 35,000  Level Gander Center
05:44AM 49.5833 -51.4667 67° East 500 575 35,000  Level Gander Center
05:45AM 49.6333 -51.2667 69° East 500 575 35,000  Level Gander Center
05:46AM 49.6833 -51.0833 67° East 500 575 35,000  Level Gander Center
05:47AM 49.7333 -50.8667 70° East 500 575 35,000  Level Gander Center
05:48AM 49.7833 -50.6667 69° East 510 587 35,000  Level Gander Center
05:49AM 49.8500 -50.4667 63° Northeast 500 575 35,000  Level Gander Center
05:50AM 49.9000 -50.2833 67° East 500 575 35,000  Level Gander Center
05:51AM 49.9333 -50.0500 77° East 500 575 35,000  Level Gander Center
05:52AM 49.9833 -49.8667 67° East 500 575 35,000  Level Gander Center
05:53AM 50.0333 -49.6667 69° East 500 575 35,000  Level Gander Center
05:54AM 50.0667 -49.5000 73° East 500 575 35,000  Level Gander Center
05:55AM 50.0000 -50.0000 69° East 505 581 35,000  Level ETMS Enhanced Traffic Management System
05:55AM 50.1167 -49.3000 69° East 500 575 35,000  Level Gander Center
05:55AM 50.0000 -50.0000 69° East 505 581 35,000  Level ETMS Enhanced Traffic Management System
05:56AM 50.1667 -49.1333 69° East 500 575 35,000  Level Gander Center
05:57AM 50.2333 -48.9333 62° Northeast 490 564 35,000  Level Gander Center
05:58AM 50.2667 -48.7167 76° East 500 575 35,000  Level Gander Center
05:59AM 50.3167 -48.5167 69° East 500 575 35,000  Level Gander Center
06:00AM 50.3667 -48.3167 69° East 490 564 35,000  Level Gander Center
06:01AM 50.4167 -48.1167 69° East 490 564 35,000  Level Gander Center
06:01AM 50.4167 -48.0667 90° East 500 575 35,000  Level Gander Center
06:04AM 50.5089 -47.7087 68° East  Level FlightAware Approximate
06:11AM 50.8654 -46.2609 71° East  Level FlightAware Approximate
06:12AM 50.9100 -46.0498 71° East  Level FlightAware Approximate
06:13AM 50.9541 -45.8382 72° East  Level FlightAware Approximate
06:14AM 50.9979 -45.6263 72° East  Level FlightAware Approximate
06:15AM 51.0414 -45.4139 72° East  Level FlightAware Approximate
06:16AM 51.0844 -45.2011 72° East  Level FlightAware Approximate
06:17AM 51.1270 -44.9880 72° East  Level FlightAware Approximate
06:18AM 51.1693 -44.7744 72° East  Level FlightAware Approximate
06:19AM 51.2112 -44.5605 73° East  Level FlightAware Approximate
06:20AM 51.2526 -44.3462 73° East  Level FlightAware Approximate
06:21AM 51.2937 -44.1315 73° East  Level FlightAware Approximate
06:22AM 51.3344 -43.9164 73° East  Level FlightAware Approximate
06:23AM 51.3735 -43.7003 74° East  Level FlightAware Approximate
06:24AM 51.4114 -43.4836 74° East  Level FlightAware Approximate
06:25AM 51.4489 -43.2664 74° East  Level FlightAware Approximate
06:26AM 51.4860 -43.0490 75° East  Level FlightAware Approximate
06:27AM 51.5227 -42.8312 75° East  Level FlightAware Approximate
06:28AM 51.5590 -42.6130 75° East  Level FlightAware Approximate
06:29AM 51.5975 -42.3956 74° East  Level FlightAware Approximate
06:30AM 51.6364 -42.1782 74° East  Level FlightAware Approximate
06:31AM 51.6748 -41.9604 74° East  Level FlightAware Approximate
06:32AM 51.7129 -41.7423 74° East  Level FlightAware Approximate
06:33AM 51.7505 -41.5238 74° East  Level FlightAware Approximate
06:34AM 51.7877 -41.3049 75° East  Level FlightAware Approximate
06:35AM 51.8245 -41.0857 75° East  Level FlightAware Approximate
06:36AM 51.8609 -40.8661 75° East  Level FlightAware Approximate
06:37AM 51.8969 -40.6462 75° East  Level FlightAware Approximate
06:38AM 51.9325 -40.4259 75° East  Level FlightAware Approximate
06:39AM 51.9677 -40.2052 75° East  Level FlightAware Approximate
06:40AM 52.0022 -39.9841 77° East  Level FlightAware Approximate
06:41AM 52.0331 -39.7615 77° East  Level FlightAware Approximate
06:42AM 52.0635 -39.5385 77° East  Level FlightAware Approximate
06:43AM 52.0935 -39.3152 78° East  Level FlightAware Approximate
06:44AM 52.1231 -39.0916 78° East  Level FlightAware Approximate
06:45AM 52.1523 -38.8678 78° East  Level FlightAware Approximate
06:45AM 52.0000 -40.0000 77° East 493 567 35,000  Level ETMS Enhanced Traffic Management System
06:46AM 52.1810 -38.6436 78° East  Level FlightAware Approximate
06:47AM 52.2094 -38.4192 78° East  Level FlightAware Approximate
06:48AM 52.2373 -38.1944 78° East  Level FlightAware Approximate
06:49AM 52.2647 -37.9694 79° East  Level FlightAware Approximate
06:50AM 52.2918 -37.7441 79° East  Level FlightAware Approximate
06:51AM 52.3218 -37.6003 79° East 493 567 35,000  Level FlightAware Transoceanic
06:52AM 52.3486 -37.3805 79° East 493 567 35,000  Level FlightAware Transoceanic
06:53AM 52.3750 -37.1604 79° East 493 567 35,000  Level FlightAware Transoceanic
06:54AM 52.4010 -36.9401 79° East 493 567 35,000  Level FlightAware Transoceanic
06:55AM 52.4266 -36.7195 79° East 493 567 35,000  Level FlightAware Transoceanic
06:56AM 52.4518 -36.4986 79° East 493 567 35,000  Level FlightAware Transoceanic
06:57AM 52.4766 -36.2775 80° East 493 567 35,000  Level FlightAware Transoceanic
06:58AM 52.5009 -36.0561 80° East 493 567 35,000  Level FlightAware Transoceanic
06:59AM 52.5249 -35.8345 80° East 493 567 35,000  Level FlightAware Transoceanic
07:00AM 52.5484 -35.6127 80° East 493 567 35,000  Level FlightAware Transoceanic
07:01AM 52.5715 -35.3906 80° East 493 567 35,000  Level FlightAware Transoceanic
07:02AM 52.5942 -35.1683 81° East 493 567 35,000  Level FlightAware Transoceanic
07:03AM 52.6165 -34.9457 81° East 493 567 35,000  Level FlightAware Transoceanic
07:04AM 52.6384 -34.7229 81° East 493 567 35,000  Level FlightAware Transoceanic
07:05AM 52.6598 -34.5000 81° East 493 567 35,000  Level FlightAware Transoceanic
07:06AM 52.6809 -34.2767 81° East 493 567 35,000  Level FlightAware Transoceanic
07:07AM 52.7015 -34.0533 81° East 493 567 35,000  Level FlightAware Transoceanic
07:08AM 52.7217 -33.8297 82° East 493 567 35,000  Level FlightAware Transoceanic
07:09AM 52.7415 -33.6059 82° East 493 567 35,000  Level FlightAware Transoceanic
07:10AM 52.7608 -33.3818 82° East 493 567 35,000  Level FlightAware Transoceanic
07:11AM 52.7797 -33.1576 82° East 493 567 35,000  Level FlightAware Transoceanic
07:12AM 52.7982 -32.9332 82° East 493 567 35,000  Level FlightAware Transoceanic
07:13AM 52.8163 -32.7086 83° East 493 567 35,000  Level FlightAware Transoceanic
07:14AM 52.8340 -32.4838 83° East 493 567 35,000  Level FlightAware Transoceanic
07:15AM 52.8512 -32.2588 83° East 493 567 35,000  Level FlightAware Transoceanic
07:16AM 52.8680 -32.0336 83° East 493 567 35,000  Level FlightAware Transoceanic
07:17AM 52.8844 -31.8083 83° East 493 567 35,000  Level FlightAware Transoceanic
07:18AM 52.9003 -31.5828 83° East 493 567 35,000  Level FlightAware Transoceanic
07:19AM 52.9159 -31.3571 84° East 493 567 35,000  Level FlightAware Transoceanic
07:20AM 52.9310 -31.1313 84° East 493 567 35,000  Level FlightAware Transoceanic
07:21AM 52.9456 -30.9054 84° East 493 567 35,000  Level FlightAware Transoceanic
07:22AM 52.9599 -30.6792 84° East 493 567 35,000  Level FlightAware Transoceanic
07:23AM 52.9737 -30.4530 84° East 493 567 35,000  Level FlightAware Transoceanic
07:24AM 52.9870 -30.2265 84° East 493 567 35,000  Level FlightAware Transoceanic
07:25AM 53.0002 -29.9965 84° East  Level FlightAware Approximate
07:26AM 53.0010 -29.9932 76° East  Level FlightAware Approximate
07:27AM 53.0333 -29.7684 76° East  Level FlightAware Approximate
07:28AM 53.0652 -29.5432 77° East  Level FlightAware Approximate
07:29AM 53.0967 -29.3177 77° East  Level FlightAware Approximate
07:29AM 53.0000 -30.0000 76° East 504 580 35,000  Level ETMS Enhanced Traffic Management System
07:30AM 53.1278 -29.0919 77° East  Level FlightAware Approximate
07:31AM 53.1584 -28.8657 77° East  Level FlightAware Approximate
07:32AM 53.1886 -28.6392 77° East  Level FlightAware Approximate
07:33AM 53.2184 -28.4124 78° East  Level FlightAware Approximate
07:34AM 53.2478 -28.1853 78° East  Level FlightAware Approximate
07:35AM 53.2767 -27.9579 78° East  Level FlightAware Approximate
07:36AM 53.3065 -27.7194 78° East 504 580 35,000  Level FlightAware Transoceanic
07:37AM 53.3347 -27.4896 78° East 504 580 35,000  Level FlightAware Transoceanic
07:38AM 53.3625 -27.2595 79° East 504 580 35,000  Level FlightAware Transoceanic
07:39AM 53.3899 -27.0291 79° East 504 580 35,000  Level FlightAware Transoceanic
07:40AM 53.4168 -26.7983 79° East 504 580 35,000  Level FlightAware Transoceanic
07:41AM 53.4433 -26.5674 79° East 504 580 35,000  Level FlightAware Transoceanic
07:42AM 53.4693 -26.3361 79° East 504 580 35,000  Level FlightAware Transoceanic
07:43AM 53.4949 -26.1045 80° East 504 580 35,000  Level FlightAware Transoceanic
07:44AM 53.5200 -25.8727 80° East 504 580 35,000  Level FlightAware Transoceanic
07:45AM 53.5447 -25.6406 80° East 504 580 35,000  Level FlightAware Transoceanic
07:46AM 53.5689 -25.4082 80° East 504 580 35,000  Level FlightAware Transoceanic
07:47AM 53.5927 -25.1755 80° East 504 580 35,000  Level FlightAware Transoceanic
07:48AM 53.6160 -24.9426 81° East 504 580 35,000  Level FlightAware Transoceanic
07:49AM 53.6389 -24.7095 81° East 504 580 35,000  Level FlightAware Transoceanic
07:50AM 53.6613 -24.4761 81° East 504 580 35,000  Level FlightAware Transoceanic
07:51AM 53.6832 -24.2424 81° East 504 580 35,000  Level FlightAware Transoceanic
07:52AM 53.7047 -24.0085 81° East 504 580 35,000  Level FlightAware Transoceanic
07:53AM 53.7258 -23.7744 81° East 504 580 35,000  Level FlightAware Transoceanic
07:54AM 53.7464 -23.5400 82° East 504 580 35,000  Level FlightAware Transoceanic
07:55AM 53.7665 -23.3054 82° East 504 580 35,000  Level FlightAware Transoceanic
07:56AM 53.7862 -23.0706 82° East 504 580 35,000  Level FlightAware Transoceanic
07:57AM 53.8054 -22.8356 82° East 504 580 35,000  Level FlightAware Transoceanic
07:58AM 53.8242 -22.6003 82° East 504 580 35,000  Level FlightAware Transoceanic
07:59AM 53.8425 -22.3649 83° East 504 580 35,000  Level FlightAware Transoceanic
08:00AM 53.8603 -22.1292 83° East 504 580 35,000  Level FlightAware Transoceanic
08:01AM 53.8777 -21.8934 83° East 504 580 35,000  Level FlightAware Transoceanic
08:02AM 53.8946 -21.6573 83° East 504 580 35,000  Level FlightAware Transoceanic
08:03AM 53.9111 -21.4211 83° East 504 580 35,000  Level FlightAware Transoceanic
08:04AM 53.9271 -21.1847 84° East 504 580 35,000  Level FlightAware Transoceanic
08:05AM 53.9426 -20.9481 84° East 504 580 35,000  Level FlightAware Transoceanic
08:06AM 53.9576 -20.7113 84° East 504 580 35,000  Level FlightAware Transoceanic
08:07AM 53.9722 -20.4744 84° East 504 580 35,000  Level FlightAware Transoceanic
08:08AM 53.9863 -20.2373 84° East 504 580 35,000  Level FlightAware Transoceanic
08:09AM 53.9999 -20.0018 84° East  Level FlightAware Approximate
08:10AM 54.0126 -19.7662 85° East  Level FlightAware Approximate
08:11AM 53.9745 -19.7712 101° East  Level FlightAware Approximate
08:12AM 53.9481 -19.5391 101° East  Level FlightAware Approximate
08:13AM 53.9212 -19.3074 101° East  Level FlightAware Approximate
08:14AM 53.8940 -19.0759 101° East  Level FlightAware Approximate
08:15AM 53.8662 -18.8447 101° East  Level FlightAware Approximate
08:16AM 53.8381 -18.6138 102° East  Level FlightAware Approximate
08:17AM 53.8094 -18.3832 102° East  Level FlightAware Approximate
08:18AM 53.7804 -18.1530 102° East  Level FlightAware Approximate
08:19AM 53.7509 -17.9230 102° East  Level FlightAware Approximate
08:20AM 53.7209 -17.6935 102° East  Level FlightAware Approximate
08:21AM 53.6906 -17.4642 103° East  Level FlightAware Approximate
08:22AM 53.6598 -17.2352 103° East  Level FlightAware Approximate
08:23AM 53.6285 -17.0066 103° East  Level FlightAware Approximate
08:24AM 53.5968 -16.7784 103° East  Level FlightAware Approximate
08:25AM 53.5647 -16.5505 103° East  Level FlightAware Approximate
08:26AM 53.5322 -16.3229 103° East  Level FlightAware Approximate
08:27AM 53.4992 -16.0957 104° East  Level FlightAware Approximate
08:28AM 53.4658 -15.8688 104° East  Level FlightAware Approximate
08:29AM 53.4319 -15.6423 104° East  Level FlightAware Approximate
08:30AM 53.3977 -15.4162 104° East  Level FlightAware Approximate
08:31AM 53.3630 -15.1904 104° East  Level FlightAware Approximate
08:32AM 53.3280 -14.9649 104° East  Level FlightAware Approximate
08:33AM 53.2933 -14.7395 104° East  Level FlightAware Approximate
08:34AM 53.2582 -14.5145 105° East  Level FlightAware Approximate
08:35AM 53.2227 -14.2898 105° East  Level FlightAware Approximate
08:36AM 53.1867 -14.0655 105° East  Level FlightAware Approximate
08:37AM 53.1504 -13.8416 105° East  Level FlightAware Approximate
08:38AM 53.1136 -13.6180 105° East  Level FlightAware Approximate
08:39AM 53.0764 -13.3949 105° East  Level FlightAware Approximate
08:40AM 53.0388 -13.1721 106° East  Level FlightAware Approximate
08:41AM 53.0008 -12.9497 106° East  Level FlightAware Approximate
08:42AM 52.9623 -12.7277 106° East  Level FlightAware Approximate
08:43AM 52.9235 -12.5061 106° East  Level FlightAware Approximate
08:44AM 52.8842 -12.2850 106° East  Level FlightAware Approximate
08:45AM 52.8445 -12.0642 106° East  Level FlightAware Approximate
08:46AM 52.8044 -11.8438 107° East  Level FlightAware Approximate
08:47AM 52.7639 -11.6238 107° East  Level FlightAware Approximate
08:48AM 52.7230 -11.4043 107° East  Level FlightAware Approximate
08:49AM 52.6817 -11.1851 107° East  Level FlightAware Approximate
08:50AM 52.6400 -10.9664 107° East  Level FlightAware Approximate
08:51AM 52.5979 -10.7480 108° East  Level FlightAware Approximate
08:52AM 52.5554 -10.5302 108° East  Level FlightAware Approximate
08:53AM 52.5125 -10.3127 108° East  Level FlightAware Approximate
08:54AM 52.4692 -10.0956 108° East  Level FlightAware Approximate
08:55AM 52.4254 -9.8790 108° East  Level FlightAware Approximate
08:56AM 52.3813 -9.6628 108° East  Level FlightAware Approximate
08:57AM 52.3368 -9.4471 109° East  Level FlightAware Approximate
08:58AM 52.2919 -9.2318 109° East  Level FlightAware Approximate
08:59AM 52.2464 -9.0171 109° East  Level FlightAware Approximate
09:00AM 52.2005 -8.8027 109° East  Level FlightAware Approximate
09:01AM 52.1543 -8.5889 109° East  Level FlightAware Approximate
09:02AM 52.1076 -8.3754 110° East  Level FlightAware Approximate
09:03AM 52.0606 -8.1624 110° East  Level FlightAware Approximate
09:04AM 52.0132 -7.9499 110° East  Level FlightAware Approximate
09:05AM 51.9654 -7.7378 110° East  Level FlightAware Approximate
09:06AM 51.9173 -7.5262 110° East  Level FlightAware Approximate
09:07AM 51.8687 -7.3150 110° East  Level FlightAware Approximate
09:08AM 51.8198 -7.1043 111° Southeast  Level FlightAware Approximate
09:09AM 51.7705 -6.8940 111° Southeast  Level FlightAware Approximate
09:10AM 51.7208 -6.6842 111° Southeast  Level FlightAware Approximate
09:11AM 51.6627 -6.4809 111° Southeast  Level FlightAware Approximate
09:12AM 51.6120 -6.2722 111° Southeast  Level FlightAware Approximate
09:13AM 51.5609 -6.0640 111° Southeast  Level FlightAware Approximate
09:14AM 51.5095 -5.8563 112° Southeast  Level FlightAware Approximate
09:15AM 51.4578 -5.6490 112° Southeast  Level FlightAware Approximate
09:16AM 51.4056 -5.4422 112° Southeast  Level FlightAware Approximate
09:17AM 51.3531 -5.2359 112° Southeast  Level FlightAware Approximate
09:18AM 51.3003 -5.0300 112° Southeast  Level FlightAware Approximate
09:19AM 51.2471 -4.8247 112° Southeast  Level FlightAware Approximate
09:20AM 51.1935 -4.6198 113° Southeast  Level FlightAware Approximate
09:21AM 51.1395 -4.4153 113° Southeast  Level FlightAware Approximate
09:22AM 51.0853 -4.2114 113° Southeast  Level FlightAware Approximate
09:23AM 51.0306 -4.0079 113° Southeast  Level FlightAware Approximate
09:24AM 50.9757 -3.8049 113° Southeast  Level FlightAware Approximate
09:25AM 50.9207 -3.6022 113° Southeast  Level FlightAware Approximate
09:26AM 50.8653 -3.3999 113° Southeast  Level FlightAware Approximate
09:27AM 50.8096 -3.1981 114° Southeast  Level FlightAware Approximate
09:28AM 50.7535 -2.9968 114° Southeast  Level FlightAware Approximate
09:29AM 50.6971 -2.7960 114° Southeast  Level FlightAware Approximate
09:30AM 50.6404 -2.5957 114° Southeast  Level FlightAware Approximate
09:31AM 50.5833 -2.3959 114° Southeast  Level FlightAware Approximate
09:32AM 50.5258 -2.1965 114° Southeast  Level FlightAware Approximate
09:33AM 50.4682 -1.9976 114° Southeast  Level FlightAware Approximate
09:34AM 50.4105 -1.7989 114° Southeast  Level FlightAware Approximate
09:35AM 50.3525 -1.6007 115° Southeast  Level FlightAware Approximate
09:36AM 50.2941 -1.4030 115° Southeast  Level FlightAware Approximate
09:37AM 50.2347 -1.2063 115° Southeast  Level FlightAware Approximate
09:38AM 50.1748 -1.0102 115° Southeast  Level FlightAware Approximate
09:39AM 50.1146 -0.8146 116° Southeast  Level FlightAware Approximate
09:40AM 50.0540 -0.6195 116° Southeast  Level FlightAware Approximate
09:41AM 49.9922 -0.4256 116° Southeast  Level FlightAware Approximate
09:42AM 49.9301 -0.2321 116° Southeast  Level FlightAware Approximate
09:43AM 49.8677 -0.0391 117° Southeast  Level FlightAware Approximate
09:44AM 49.8046 0.1530 117° Southeast  Level FlightAware Approximate
09:45AM 49.7438 0.3467 116° Southeast  Level FlightAware Approximate
09:46AM 49.6837 0.5406 115° Southeast  Level FlightAware Approximate
09:47AM 49.6223 0.7333 117° Southeast  Level FlightAware Approximate
09:48AM 49.5587 0.9241 117° Southeast  Level FlightAware Approximate
09:49AM 49.4932 1.1130 120° Southeast  Level FlightAware Approximate
09:50AM 49.4238 1.2984 120° Southeast  Level FlightAware Approximate
09:51AM 49.3566 1.4853 114° Southeast  Level FlightAware Approximate
09:52AM 49.3008 1.6807 114° Southeast  Level FlightAware Approximate
09:53AM 49.2377 1.8707 117° Southeast  Level FlightAware Approximate
09:54AM 49.1660 2.0521 117° Southeast  Level FlightAware Approximate
09:55AM 49.1028 2.2415 117° Southeast  Level FlightAware Approximate
09:56AM 49.0362 2.4266 123° Southeast  Level FlightAware Approximate
09:57AM 49.0000 2.5333 117° Southeast  Level FlightAware Approximate
09:58AM 49.0128 2.5500 117° Southeast  Level Estimated
09:59AM 49.0128 2.5500 117° Southeast  Level Estimated
10:00AM 49.0128 2.5500 117° Southeast  Level Estimated
10:01AM 49.0128 2.5500 117° Southeast  Level Estimated
10:02AM 49.0128 2.5500 117° Southeast  Level Estimated
10:03AM 49.0128 2.5500 117° Southeast  Level Estimated
10:04AM 49.0128 2.5500 117° Southeast  Level Estimated
10:05AM 49.0128 2.5500 117° Southeast  Level Estimated
10:06AM 49.0128 2.5500 117° Southeast  Level Estimated
10:07AM 49.0128 2.5500 117° Southeast  Level Estimated
10:08AM 49.0128 2.5500 117° Southeast  Level Estimated
10:09AM 49.0128 2.5500 117° Southeast  Level Estimated
10:10AM 49.0128 2.5500 117° Southeast  Level Estimated